createdAt,value
2017-10-16T00:00:10.706Z,0
2017-10-16T00:00:24.186Z,0
2017-10-16T00:00:37.101Z,0
2017-10-16T00:00:50.591Z,0
2017-10-16T00:01:03.982Z,0
2017-10-16T00:01:16.921Z,0
2017-10-16T00:01:30.359Z,0
2017-10-16T00:01:43.360Z,0
2017-10-16T00:01:56.290Z,0
2017-10-16T00:02:10.355Z,0
2017-10-16T00:02:23.786Z,0
2017-10-16T00:02:36.694Z,0
2017-10-16T00:02:50.186Z,0
2017-10-16T00:03:03.642Z,0
2017-10-16T00:03:16.024Z,0
2017-10-16T00:03:29.011Z,0
2017-10-16T00:03:41.991Z,0
2017-10-16T00:03:55.447Z,0
2017-10-16T00:04:08.369Z,0
2017-10-16T00:04:21.887Z,0
2017-10-16T00:04:34.826Z,0
2017-10-16T00:04:47.846Z,0
2017-10-16T00:05:00.754Z,0
2017-10-16T00:05:14.176Z,0
2017-10-16T00:05:27.575Z,0
2017-10-16T00:05:41.038Z,0
2017-10-16T00:05:53.998Z,0
2017-10-16T00:06:06.898Z,0
2017-10-16T00:06:19.841Z,0
2017-10-16T00:06:33.261Z,0
2017-10-16T00:06:46.874Z,0
2017-10-16T00:06:59.845Z,0
2017-10-16T00:07:13.287Z,0
2017-10-16T00:07:27.053Z,0
2017-10-16T00:07:40.499Z,0
2017-10-16T00:07:54.202Z,0
2017-10-16T00:08:07.223Z,0
2017-10-16T00:08:20.159Z,0
2017-10-16T00:08:33.633Z,0
2017-10-16T00:08:47.916Z,0
2017-10-16T00:09:00.833Z,0
2017-10-16T00:09:15.590Z,0
2017-10-16T00:09:29.166Z,0
2017-10-16T00:09:42.082Z,0
2017-10-16T00:09:56.457Z,0
2017-10-16T00:10:09.939Z,0
2017-10-16T00:10:22.379Z,0
2017-10-16T00:10:35.815Z,0
2017-10-16T00:10:49.540Z,0
2017-10-16T00:11:03.018Z,0
2017-10-16T00:11:16.472Z,0
2017-10-16T00:11:29.633Z,0
2017-10-16T00:11:43.355Z,0
2017-10-16T00:11:57.499Z,0
2017-10-16T00:12:11.140Z,0
2017-10-16T00:12:25.966Z,0
2017-10-16T00:12:39.481Z,0
2017-10-16T00:12:53.729Z,0
2017-10-16T00:13:07.146Z,0
2017-10-16T00:13:20.587Z,0
2017-10-16T00:13:34.034Z,0
2017-10-16T00:13:47.472Z,0
2017-10-16T00:14:00.393Z,0
2017-10-16T00:14:13.351Z,0
2017-10-16T00:14:28.656Z,0
2017-10-16T00:14:42.203Z,0
2017-10-16T00:14:56.931Z,0
2017-10-16T00:15:14.685Z,0
2017-10-16T00:15:28.149Z,0
2017-10-16T00:15:41.048Z,0
2017-10-16T00:15:54.746Z,0
2017-10-16T00:16:14.901Z,0
2017-10-16T00:16:31.398Z,0
2017-10-16T00:16:44.309Z,0
2017-10-16T00:16:57.514Z,0
2017-10-16T00:17:11.032Z,0
2017-10-16T00:17:24.849Z,0
2017-10-16T00:17:38.574Z,0
2017-10-16T00:17:51.467Z,0
2017-10-16T00:18:04.349Z,0
2017-10-16T00:18:16.941Z,0
2017-10-16T00:18:30.433Z,0
2017-10-16T00:18:43.946Z,0
2017-10-16T00:18:57.397Z,0
2017-10-16T00:19:18.180Z,0
2017-10-16T00:19:31.118Z,0
2017-10-16T00:19:55.093Z,0
2017-10-16T00:20:20.465Z,0
2017-10-16T00:20:39.958Z,0
2017-10-16T00:20:53.124Z,0
2017-10-16T00:21:06.569Z,0
2017-10-16T00:21:21.500Z,0
2017-10-16T00:21:46.886Z,0
2017-10-16T00:21:59.806Z,0
2017-10-16T00:22:23.666Z,0
2017-10-16T00:22:36.079Z,0
2017-10-16T00:22:49.791Z,0
2017-10-16T00:23:03.261Z,0
2017-10-16T00:23:16.777Z,0
2017-10-16T00:23:41.169Z,0
2017-10-16T00:23:58.922Z,0
2017-10-16T00:24:11.837Z,0
2017-10-16T00:24:24.773Z,0
2017-10-16T00:24:38.215Z,0
2017-10-16T00:24:51.605Z,0
2017-10-16T00:25:04.563Z,0
2017-10-16T00:25:18.061Z,0
2017-10-16T00:25:31.611Z,0
2017-10-16T00:25:45.124Z,0
2017-10-16T00:25:58.052Z,0
2017-10-16T00:26:11.747Z,0
2017-10-16T00:26:25.214Z,0
2017-10-16T00:26:38.869Z,0
2017-10-16T00:26:52.364Z,0
2017-10-16T00:27:05.835Z,0
2017-10-16T00:27:19.352Z,0
2017-10-16T00:27:32.320Z,0
2017-10-16T00:27:45.739Z,0
2017-10-16T00:27:59.209Z,0
2017-10-16T00:28:12.628Z,0
2017-10-16T00:28:26.163Z,0
2017-10-16T00:28:39.904Z,0
2017-10-16T00:28:53.602Z,0
2017-10-16T00:29:06.599Z,0
2017-10-16T00:29:20.025Z,0
2017-10-16T00:29:35.148Z,0
2017-10-16T00:29:49.827Z,0
2017-10-16T00:31:00.492Z,0
2017-10-16T00:31:13.433Z,0
2017-10-16T00:31:26.336Z,0
2017-10-16T00:31:47.671Z,0
2017-10-16T00:32:11.653Z,0
2017-10-16T00:32:29.409Z,0
2017-10-16T00:32:43.325Z,0
2017-10-16T00:33:51.028Z,0
2017-10-16T00:34:04.523Z,0
2017-10-16T00:34:17.406Z,0
2017-10-16T00:34:30.891Z,0
2017-10-16T00:34:44.325Z,0
2017-10-16T00:34:57.241Z,0
2017-10-16T00:35:10.213Z,0
2017-10-16T00:35:23.723Z,0
2017-10-16T00:35:36.129Z,0
2017-10-16T00:35:49.546Z,0
2017-10-16T00:36:02.443Z,0
2017-10-16T00:36:15.423Z,0
2017-10-16T00:37:00.265Z,0
2017-10-16T00:37:44.303Z,0
2017-10-16T00:38:16.235Z,0
2017-10-16T00:38:32.699Z,0
2017-10-16T00:38:50.039Z,0
2017-10-16T00:39:02.468Z,0
2017-10-16T00:39:18.486Z,0
2017-10-16T00:39:38.291Z,0
2017-10-16T00:39:52.276Z,0
2017-10-16T00:40:20.782Z,0
2017-10-16T00:40:36.751Z,0
2017-10-16T00:41:21.591Z,0
2017-10-16T00:41:48.308Z,0
2017-10-16T00:42:07.783Z,0
2017-10-16T00:42:51.313Z,0
2017-10-16T00:43:03.767Z,0
2017-10-16T00:46:23.342Z,0
2017-10-16T00:47:07.429Z,0
2017-10-16T00:47:20.369Z,0
2017-10-16T00:47:49.576Z,0
2017-10-16T00:48:30.818Z,0
2017-10-16T00:48:49.538Z,0
2017-10-16T00:49:03.006Z,0
2017-10-16T00:49:31.858Z,0
2017-10-16T00:49:49.130Z,0
2017-10-16T00:50:08.903Z,0
2017-10-16T00:50:21.856Z,0
2017-10-16T00:50:35.367Z,0
2017-10-16T00:50:48.837Z,0
2017-10-16T00:52:06.296Z,0
2017-10-16T00:52:18.684Z,0
2017-10-16T00:52:46.364Z,0
2017-10-16T00:54:13.844Z,0
2017-10-16T00:54:27.798Z,0
2017-10-16T00:54:47.576Z,0
2017-10-16T00:55:00.528Z,0
2017-10-16T00:55:23.239Z,0
2017-10-16T00:55:36.239Z,0
2017-10-16T00:55:53.531Z,0
2017-10-16T00:56:41.381Z,0
2017-10-16T00:56:54.892Z,0
2017-10-16T00:58:18.149Z,0
2017-10-16T00:58:32.658Z,0
2017-10-16T00:58:51.014Z,0
2017-10-16T00:59:03.932Z,0
2017-10-16T00:59:17.408Z,0
2017-10-16T00:59:30.928Z,0
2017-10-16T00:59:43.991Z,0
2017-10-16T01:00:21.852Z,0
2017-10-16T01:01:32.406Z,0
2017-10-16T10:07:03.917Z,285
2017-10-16T10:07:17.349Z,285
2017-10-16T10:07:30.823Z,285
2017-10-16T10:07:44.258Z,285
2017-10-16T10:07:57.176Z,285
2017-10-16T10:08:09.587Z,280
2017-10-16T10:08:23.055Z,280
2017-10-16T10:08:35.918Z,280
2017-10-16T10:08:48.277Z,280
2017-10-16T10:09:01.161Z,280
2017-10-16T10:09:14.639Z,285
2017-10-16T10:09:28.093Z,285
2017-10-16T10:09:41.507Z,285
2017-10-16T10:09:54.390Z,290
2017-10-16T10:10:07.940Z,290
2017-10-16T10:10:20.873Z,295
2017-10-16T10:10:34.357Z,295
2017-10-16T10:10:47.808Z,295
2017-10-16T10:11:00.683Z,300
2017-10-16T10:11:14.124Z,305
2017-10-16T10:11:27.583Z,305
2017-10-16T10:11:41.021Z,310
2017-10-16T10:11:53.882Z,320
2017-10-16T10:12:06.242Z,315
2017-10-16T10:12:18.089Z,320
2017-10-16T10:12:31.559Z,320
2017-10-16T10:12:44.448Z,330
2017-10-16T10:12:57.877Z,325
2017-10-16T10:13:10.788Z,330
2017-10-16T10:13:24.259Z,330
2017-10-16T10:13:37.181Z,330
2017-10-16T10:13:50.100Z,335
2017-10-16T10:14:03.508Z,330
2017-10-16T10:14:15.882Z,330
2017-10-16T10:14:29.377Z,335
2017-10-16T10:14:42.249Z,335
2017-10-16T10:14:55.689Z,340
2017-10-16T10:15:09.189Z,340
2017-10-16T10:15:22.628Z,340
2017-10-16T10:15:36.075Z,335
2017-10-16T10:15:49.554Z,340
2017-10-16T10:16:02.985Z,335
2017-10-16T10:16:15.887Z,340
2017-10-16T10:16:29.334Z,340
2017-10-16T10:16:42.240Z,340
2017-10-16T10:16:55.653Z,340
2017-10-16T10:17:09.143Z,340
2017-10-16T10:17:22.546Z,345
2017-10-16T10:17:35.457Z,345
2017-10-16T10:17:48.880Z,345
2017-10-16T10:18:01.269Z,345
2017-10-16T10:18:14.155Z,350
2017-10-16T10:18:27.602Z,350
2017-10-16T10:18:41.041Z,350
2017-10-16T10:18:53.926Z,360
2017-10-16T10:19:06.861Z,355
2017-10-16T10:19:19.261Z,360
2017-10-16T10:19:31.595Z,395
2017-10-16T10:19:45.009Z,570
2017-10-16T10:19:57.917Z,745
2017-10-16T10:20:11.380Z,845
2017-10-16T10:20:24.832Z,445
2017-10-16T10:20:38.300Z,375
2017-10-16T10:20:51.358Z,370
2017-10-16T10:21:04.823Z,585
2017-10-16T10:21:17.185Z,615
2017-10-16T10:21:29.524Z,760
2017-10-16T10:21:42.966Z,685
2017-10-16T10:21:56.434Z,770
2017-10-16T10:22:08.819Z,590
2017-10-16T10:22:21.746Z,395
2017-10-16T10:22:35.172Z,370
2017-10-16T10:22:48.587Z,370
2017-10-16T10:23:02.054Z,370
2017-10-16T10:23:15.526Z,370
2017-10-16T10:23:28.992Z,370
2017-10-16T10:23:42.430Z,370
2017-10-16T10:23:55.967Z,370
2017-10-16T10:24:09.371Z,370
2017-10-16T10:24:22.322Z,370
2017-10-16T10:24:35.841Z,375
2017-10-16T10:24:49.324Z,380
2017-10-16T10:25:02.211Z,405
2017-10-16T10:25:15.142Z,420
2017-10-16T10:25:27.562Z,400
2017-10-16T10:25:41.038Z,395
2017-10-16T10:25:53.930Z,395
2017-10-16T10:26:07.345Z,400
2017-10-16T10:26:20.225Z,405
2017-10-16T10:26:33.720Z,400
2017-10-16T10:26:46.102Z,400
2017-10-16T10:26:58.941Z,400
2017-10-16T10:27:11.884Z,400
2017-10-16T10:27:25.368Z,410
2017-10-16T10:27:37.132Z,400
2017-10-16T10:27:50.059Z,400
2017-10-16T10:28:02.974Z,400
2017-10-16T10:28:15.854Z,405
2017-10-16T10:28:28.801Z,405
2017-10-16T10:28:41.181Z,415
2017-10-16T10:28:54.674Z,410
2017-10-16T10:29:07.545Z,415
2017-10-16T10:29:20.969Z,415
2017-10-16T10:29:34.336Z,420
2017-10-16T10:29:47.223Z,425
2017-10-16T10:30:00.157Z,425
2017-10-16T10:30:13.075Z,435
2017-10-16T10:30:26.503Z,515
2017-10-16T10:30:38.866Z,935
2017-10-16T10:30:52.328Z,710
2017-10-16T10:31:05.324Z,735
2017-10-16T10:31:18.761Z,920
2017-10-16T10:31:32.184Z,755
2017-10-16T10:31:45.630Z,520
2017-10-16T10:31:59.088Z,475
2017-10-16T10:32:12.030Z,485
2017-10-16T10:32:24.943Z,645
2017-10-16T10:32:37.880Z,735
2017-10-16T10:32:51.298Z,460
2017-10-16T10:33:04.227Z,500
2017-10-16T10:33:17.278Z,445
2017-10-16T10:33:30.725Z,445
2017-10-16T10:33:43.678Z,440
2017-10-16T10:33:56.590Z,450
2017-10-16T10:34:09.491Z,505
2017-10-16T10:34:22.437Z,505
2017-10-16T10:34:35.374Z,460
2017-10-16T10:34:48.863Z,435
2017-10-16T10:35:02.341Z,430
2017-10-16T10:35:15.236Z,425
2017-10-16T10:35:28.625Z,425
2017-10-16T10:35:41.509Z,425
2017-10-16T10:35:56.458Z,425
2017-10-16T10:36:09.387Z,430
2017-10-16T10:36:21.749Z,435
2017-10-16T10:36:34.664Z,435
2017-10-16T10:36:47.610Z,440
2017-10-16T10:37:00.557Z,445
2017-10-16T10:37:13.941Z,450
2017-10-16T10:37:27.381Z,460
2017-10-16T10:37:40.295Z,470
2017-10-16T10:37:53.718Z,470
2017-10-16T10:38:06.651Z,475
2017-10-16T10:38:18.954Z,480
2017-10-16T10:38:31.340Z,485
2017-10-16T10:38:44.797Z,490
2017-10-16T10:38:57.704Z,500
2017-10-16T10:39:11.159Z,495
2017-10-16T10:39:25.960Z,505
2017-10-16T10:39:39.416Z,515
2017-10-16T10:39:52.888Z,580
2017-10-16T10:40:05.748Z,855
2017-10-16T10:40:18.098Z,1010
2017-10-16T10:40:30.991Z,1020
2017-10-16T10:40:43.957Z,955
2017-10-16T10:40:56.864Z,680
2017-10-16T10:41:10.357Z,790
2017-10-16T10:41:23.228Z,540
2017-10-16T10:41:36.712Z,535
2017-10-16T10:41:50.178Z,545
2017-10-16T10:42:03.109Z,550
2017-10-16T10:42:16.595Z,520
2017-10-16T10:42:30.036Z,505
2017-10-16T10:42:43.417Z,495
2017-10-16T10:42:55.778Z,495
2017-10-16T10:43:08.646Z,490
2017-10-16T10:43:21.575Z,495
2017-10-16T10:43:34.980Z,490
2017-10-16T10:43:47.358Z,485
2017-10-16T10:44:00.832Z,485
2017-10-16T10:44:14.271Z,480
2017-10-16T10:44:27.169Z,475
2017-10-16T10:44:40.069Z,475
2017-10-16T10:44:53.007Z,480
2017-10-16T10:45:05.898Z,475
2017-10-16T10:45:18.799Z,485
2017-10-16T10:45:32.241Z,485
2017-10-16T10:45:45.725Z,485
2017-10-16T10:45:59.140Z,485
2017-10-16T10:46:12.070Z,485
2017-10-16T10:46:25.028Z,475
2017-10-16T10:46:38.482Z,475
2017-10-16T10:46:51.412Z,475
2017-10-16T10:47:04.814Z,475
2017-10-16T10:47:18.246Z,480
2017-10-16T10:47:31.687Z,485
2017-10-16T10:47:44.585Z,510
2017-10-16T10:47:58.036Z,525
2017-10-16T10:48:11.467Z,525
2017-10-16T10:48:24.348Z,750
2017-10-16T10:48:37.775Z,1000
2017-10-16T10:48:50.659Z,1020
2017-10-16T10:49:04.066Z,995
2017-10-16T10:49:16.977Z,785
2017-10-16T10:49:30.480Z,670
2017-10-16T10:49:43.906Z,775
2017-10-16T10:49:57.373Z,745
2017-10-16T10:50:10.298Z,530
2017-10-16T10:50:23.234Z,505
2017-10-16T10:50:36.648Z,500
2017-10-16T10:50:49.517Z,500
2017-10-16T10:51:03.041Z,505
2017-10-16T10:51:15.407Z,510
2017-10-16T10:51:28.294Z,515
2017-10-16T10:51:41.242Z,685
2017-10-16T10:51:54.148Z,1030
2017-10-16T10:52:07.567Z,845
2017-10-16T10:52:20.994Z,610
2017-10-16T10:52:33.926Z,555
2017-10-16T10:52:47.340Z,580
2017-10-16T10:53:00.224Z,795
2017-10-16T10:53:13.647Z,1095
2017-10-16T10:53:26.495Z,870
2017-10-16T10:53:38.831Z,775
2017-10-16T10:53:51.193Z,970
2017-10-16T10:54:03.539Z,1025
2017-10-16T10:54:17.085Z,1075
2017-10-16T10:54:30.018Z,885
2017-10-16T10:54:43.472Z,650
2017-10-16T10:54:55.825Z,540
2017-10-16T10:55:09.256Z,760
2017-10-16T10:55:22.667Z,1090
2017-10-16T10:55:36.177Z,1075
2017-10-16T10:55:49.069Z,1055
2017-10-16T10:56:02.092Z,760
2017-10-16T10:56:14.932Z,675
2017-10-16T10:56:28.415Z,1090
2017-10-16T10:56:41.345Z,1120
2017-10-16T10:56:54.779Z,1130
2017-10-16T10:57:08.176Z,1050
2017-10-16T10:57:21.621Z,1145
2017-10-16T10:57:35.082Z,1145
2017-10-16T10:57:48.544Z,885
2017-10-16T10:58:01.438Z,670
2017-10-16T10:58:14.307Z,595
2017-10-16T10:58:27.183Z,565
2017-10-16T10:58:40.693Z,585
2017-10-16T10:58:54.145Z,590
2017-10-16T10:59:07.568Z,555
2017-10-16T10:59:20.980Z,535
2017-10-16T10:59:34.382Z,565
2017-10-16T10:59:47.733Z,685
2017-10-16T10:59:59.557Z,660
2017-10-16T11:00:13.010Z,1045
2017-10-16T11:00:24.839Z,905
2017-10-16T11:00:38.302Z,1025
2017-10-16T11:00:51.739Z,870
2017-10-16T11:01:04.655Z,645
2017-10-16T11:01:18.107Z,830
2017-10-16T11:01:31.571Z,1115
2017-10-16T11:01:44.992Z,1020
2017-10-16T11:01:57.347Z,1040
2017-10-16T11:02:10.825Z,1155
2017-10-16T11:02:24.283Z,1115
2017-10-16T11:02:37.162Z,1140
2017-10-16T11:02:50.150Z,1040
2017-10-16T11:03:02.498Z,845
2017-10-16T11:03:15.962Z,750
2017-10-16T11:03:28.850Z,705
2017-10-16T11:03:42.276Z,800
2017-10-16T11:03:55.740Z,1185
2017-10-16T11:04:09.161Z,990
2017-10-16T11:04:22.616Z,1120
2017-10-16T11:04:36.062Z,990
2017-10-16T11:04:49.455Z,1175
2017-10-16T11:05:01.835Z,1205
2017-10-16T11:05:14.794Z,1100
2017-10-16T11:05:27.700Z,1230
2017-10-16T11:05:40.105Z,735
2017-10-16T11:05:53.541Z,660
2017-10-16T11:06:07.085Z,715
2017-10-16T11:06:20.530Z,1240
2017-10-16T11:06:33.433Z,885
2017-10-16T11:06:46.364Z,680
2017-10-16T11:06:59.300Z,845
2017-10-16T11:07:11.693Z,850
2017-10-16T11:07:24.542Z,1135
2017-10-16T11:07:37.649Z,1125
2017-10-16T11:07:50.510Z,1095
2017-10-16T11:08:03.349Z,1080
2017-10-16T11:08:16.760Z,760
2017-10-16T11:08:30.230Z,865
2017-10-16T11:08:43.682Z,955
2017-10-16T11:08:56.050Z,1060
2017-10-16T11:09:08.956Z,1005
2017-10-16T11:09:22.474Z,1110
2017-10-16T11:09:35.943Z,625
2017-10-16T11:09:48.827Z,720
2017-10-16T11:10:01.756Z,665
2017-10-16T11:10:15.241Z,945
2017-10-16T11:10:27.642Z,1140
2017-10-16T11:10:41.147Z,1125
2017-10-16T11:10:54.567Z,1125
2017-10-16T11:11:08.027Z,1130
2017-10-16T11:11:20.361Z,1130
2017-10-16T11:11:33.861Z,1130
2017-10-16T11:11:47.196Z,1085
2017-10-16T11:12:00.617Z,1130
2017-10-16T11:12:14.077Z,1150
2017-10-16T11:12:26.985Z,1155
2017-10-16T11:12:39.284Z,1160
2017-10-16T11:12:52.714Z,1145
2017-10-16T11:13:05.655Z,1080
2017-10-16T11:13:19.105Z,710
2017-10-16T11:13:32.583Z,630
2017-10-16T11:13:46.016Z,670
2017-10-16T11:13:58.445Z,1015
2017-10-16T11:14:11.437Z,1115
2017-10-16T11:14:24.887Z,1135
2017-10-16T11:14:37.241Z,1125
2017-10-16T11:14:50.140Z,1120
2017-10-16T11:15:03.033Z,1120
2017-10-16T11:15:15.889Z,1105
2017-10-16T11:15:29.070Z,575
2017-10-16T11:15:42.061Z,585
2017-10-16T11:15:55.559Z,925
2017-10-16T11:16:08.510Z,1085
2017-10-16T11:16:21.947Z,1075
2017-10-16T11:16:34.790Z,1070
2017-10-16T11:16:48.249Z,550
2017-10-16T11:17:01.650Z,525
2017-10-16T11:17:15.102Z,540
2017-10-16T11:17:28.507Z,555
2017-10-16T11:17:42.015Z,845
2017-10-16T11:17:54.916Z,885
2017-10-16T11:18:07.811Z,915
2017-10-16T11:18:20.245Z,950
2017-10-16T11:18:33.697Z,780
2017-10-16T11:18:47.127Z,995
2017-10-16T11:18:59.996Z,1030
2017-10-16T11:19:12.445Z,850
2017-10-16T11:19:25.885Z,755
2017-10-16T11:19:37.702Z,860
2017-10-16T11:19:51.120Z,660
2017-10-16T11:20:04.032Z,485
2017-10-16T11:20:17.423Z,485
2017-10-16T11:20:30.373Z,665
2017-10-16T11:20:43.882Z,455
2017-10-16T11:20:57.343Z,450
2017-10-16T11:21:09.823Z,460
2017-10-16T11:21:22.695Z,475
2017-10-16T11:21:35.051Z,550
2017-10-16T11:21:48.526Z,690
2017-10-16T11:22:01.467Z,675
2017-10-16T11:22:14.406Z,575
2017-10-16T11:22:27.842Z,520
2017-10-16T11:22:41.290Z,555
2017-10-16T11:22:53.647Z,765
2017-10-16T11:23:06.531Z,990
2017-10-16T11:23:19.449Z,505
2017-10-16T11:23:32.877Z,505
2017-10-16T11:23:46.266Z,525
2017-10-16T11:23:59.207Z,555
2017-10-16T11:24:12.157Z,515
2017-10-16T11:24:25.079Z,500
2017-10-16T11:24:37.945Z,485
2017-10-16T11:24:51.374Z,490
2017-10-16T11:25:03.775Z,510
2017-10-16T11:25:17.218Z,565
2017-10-16T11:25:30.665Z,565
2017-10-16T11:25:42.490Z,540
2017-10-16T11:25:54.909Z,765
2017-10-16T11:26:08.333Z,600
2017-10-16T11:26:20.723Z,685
2017-10-16T11:26:34.202Z,935
2017-10-16T11:26:47.100Z,550
2017-10-16T11:27:00.025Z,555
2017-10-16T11:27:14.031Z,950
2017-10-16T11:27:25.275Z,940
2017-10-16T11:27:38.765Z,675
2017-10-16T11:27:51.176Z,680
2017-10-16T11:28:04.634Z,945
2017-10-16T11:28:18.048Z,945
2017-10-16T11:28:30.994Z,950
2017-10-16T11:28:44.447Z,890
2017-10-16T11:28:56.271Z,750
2017-10-16T11:29:09.738Z,650
2017-10-16T11:29:23.184Z,470
2017-10-16T11:29:36.091Z,470
2017-10-16T11:29:48.980Z,495
2017-10-16T11:30:02.450Z,885
2017-10-16T11:30:14.298Z,580
2017-10-16T11:30:27.219Z,555
2017-10-16T11:30:40.123Z,545
2017-10-16T11:30:52.969Z,550
2017-10-16T11:31:05.819Z,540
2017-10-16T11:31:18.709Z,585
2017-10-16T11:31:32.157Z,800
2017-10-16T11:31:44.547Z,585
2017-10-16T11:31:57.513Z,555
2017-10-16T11:32:10.414Z,560
2017-10-16T11:32:22.734Z,580
2017-10-16T11:32:36.212Z,615
2017-10-16T11:32:49.663Z,1010
2017-10-16T11:33:02.576Z,935
2017-10-16T11:33:15.475Z,660
2017-10-16T11:33:27.856Z,650
2017-10-16T11:33:40.752Z,660
2017-10-16T11:33:54.170Z,850
2017-10-16T11:34:07.103Z,960
2017-10-16T11:34:20.552Z,955
2017-10-16T11:34:34.056Z,955
2017-10-16T11:34:47.459Z,945
2017-10-16T11:35:00.329Z,685
2017-10-16T11:35:13.696Z,535
2017-10-16T11:35:27.144Z,570
2017-10-16T11:35:40.583Z,770
2017-10-16T11:35:53.014Z,560
2017-10-16T11:36:06.433Z,870
2017-10-16T11:36:19.544Z,725
2017-10-16T11:36:32.969Z,930
2017-10-16T11:36:46.410Z,875
2017-10-16T11:36:58.783Z,910
2017-10-16T11:37:12.276Z,890
2017-10-16T11:37:25.736Z,885
2017-10-16T11:37:38.604Z,885
2017-10-16T11:37:52.086Z,890
2017-10-16T11:38:05.542Z,880
2017-10-16T11:38:18.446Z,595
2017-10-16T11:38:31.898Z,525
2017-10-16T11:38:44.804Z,545
2017-10-16T11:38:57.717Z,550
2017-10-16T11:39:10.097Z,545
2017-10-16T11:39:23.614Z,595
2017-10-16T11:39:37.028Z,690
2017-10-16T11:39:50.464Z,900
2017-10-16T11:40:03.925Z,735
2017-10-16T11:40:17.344Z,835
2017-10-16T11:40:30.785Z,875
2017-10-16T11:40:44.220Z,885
2017-10-16T11:40:57.128Z,615
2017-10-16T11:41:09.453Z,720
2017-10-16T11:41:22.388Z,700
2017-10-16T11:41:35.295Z,855
2017-10-16T11:41:48.201Z,855
2017-10-16T11:42:01.670Z,850
2017-10-16T11:42:15.125Z,845
2017-10-16T11:42:27.486Z,625
2017-10-16T11:42:40.427Z,845
2017-10-16T11:42:53.400Z,480
2017-10-16T11:43:06.922Z,710
2017-10-16T11:43:18.757Z,850
2017-10-16T11:43:31.167Z,850
2017-10-16T11:43:44.676Z,865
2017-10-16T11:43:58.046Z,860
2017-10-16T11:44:10.944Z,860
2017-10-16T11:44:24.444Z,865
2017-10-16T11:44:37.366Z,805
2017-10-16T11:44:50.837Z,860
2017-10-16T11:45:04.322Z,850
2017-10-16T11:45:17.389Z,855
2017-10-16T11:45:30.233Z,845
2017-10-16T11:45:42.614Z,850
2017-10-16T11:45:56.052Z,840
2017-10-16T11:46:09.533Z,840
2017-10-16T11:46:22.416Z,830
2017-10-16T11:46:35.834Z,830
2017-10-16T11:46:49.208Z,825
2017-10-16T11:47:02.161Z,835
2017-10-16T11:47:14.500Z,795
2017-10-16T11:47:27.913Z,565
2017-10-16T11:47:40.804Z,560
2017-10-16T11:47:54.286Z,825
2017-10-16T11:48:07.217Z,820
2017-10-16T11:48:20.163Z,815
2017-10-16T11:48:33.120Z,820
2017-10-16T11:48:46.535Z,820
2017-10-16T11:49:00.003Z,820
2017-10-16T11:49:12.405Z,820
2017-10-16T11:49:25.881Z,825
2017-10-16T11:49:39.359Z,815
2017-10-16T11:49:52.276Z,810
2017-10-16T11:50:05.189Z,755
2017-10-16T11:50:18.102Z,790
2017-10-16T11:50:31.522Z,745
2017-10-16T11:50:43.339Z,590
2017-10-16T11:50:55.727Z,790
2017-10-16T11:51:08.658Z,680
2017-10-16T11:51:22.203Z,755
2017-10-16T11:51:35.097Z,830
2017-10-16T11:51:48.604Z,815
2017-10-16T11:52:01.490Z,755
2017-10-16T11:52:14.902Z,745
2017-10-16T11:52:28.360Z,795
2017-10-16T11:52:41.204Z,895
2017-10-16T11:52:54.644Z,890
2017-10-16T11:53:07.573Z,890
2017-10-16T11:53:21.082Z,830
2017-10-16T11:53:33.998Z,895
2017-10-16T11:53:47.425Z,910
2017-10-16T11:54:00.849Z,905
2017-10-16T11:54:14.272Z,895
2017-10-16T11:54:27.141Z,890
2017-10-16T11:54:40.598Z,900
2017-10-16T11:54:52.958Z,905
2017-10-16T11:55:05.329Z,865
2017-10-16T11:55:17.182Z,875
2017-10-16T11:55:30.083Z,885
2017-10-16T11:55:43.524Z,875
2017-10-16T11:55:56.996Z,870
2017-10-16T11:56:09.857Z,865
2017-10-16T11:56:23.257Z,875
2017-10-16T11:56:36.720Z,885
2017-10-16T11:56:49.649Z,890
2017-10-16T11:57:02.018Z,890
2017-10-16T11:57:14.374Z,835
2017-10-16T11:57:27.324Z,865
2017-10-16T11:57:39.764Z,875
2017-10-16T11:57:52.689Z,880
2017-10-16T11:58:05.000Z,870
2017-10-16T11:58:18.459Z,860
2017-10-16T11:58:31.934Z,860
2017-10-16T11:58:45.372Z,860
2017-10-16T11:58:58.779Z,865
2017-10-16T11:59:11.660Z,725
2017-10-16T11:59:25.110Z,875
2017-10-16T11:59:38.521Z,870
2017-10-16T11:59:52.017Z,880
2017-10-16T12:00:05.452Z,870
2017-10-16T12:00:18.418Z,850
2017-10-16T12:00:31.285Z,830
2017-10-16T12:00:44.169Z,835
2017-10-16T12:00:57.634Z,770
2017-10-16T12:01:11.096Z,800
2017-10-16T12:01:24.102Z,810
2017-10-16T12:01:37.529Z,840
2017-10-16T12:01:50.916Z,820
2017-10-16T12:02:03.799Z,645
2017-10-16T12:02:16.681Z,835
2017-10-16T12:02:30.054Z,825
2017-10-16T12:02:42.979Z,810
2017-10-16T12:02:56.441Z,805
2017-10-16T12:03:09.353Z,790
2017-10-16T12:03:22.315Z,810
2017-10-16T12:03:35.221Z,565
2017-10-16T12:03:47.597Z,645
2017-10-16T12:04:00.502Z,675
2017-10-16T12:04:13.442Z,555
2017-10-16T12:04:26.304Z,540
2017-10-16T12:04:39.774Z,550
2017-10-16T12:04:53.253Z,545
2017-10-16T12:05:05.070Z,795
2017-10-16T12:05:18.547Z,795
2017-10-16T12:05:32.037Z,705
2017-10-16T12:05:44.924Z,670
2017-10-16T12:05:58.330Z,580
2017-10-16T12:06:11.849Z,525
2017-10-16T12:06:25.101Z,610
2017-10-16T12:06:38.490Z,780
2017-10-16T12:06:51.386Z,780
2017-10-16T12:07:04.849Z,775
2017-10-16T12:07:17.802Z,695
2017-10-16T12:07:30.681Z,540
2017-10-16T12:07:43.014Z,770
2017-10-16T12:07:55.904Z,775
2017-10-16T12:08:08.871Z,770
2017-10-16T12:08:22.357Z,770
2017-10-16T12:08:35.834Z,655
2017-10-16T12:08:48.157Z,510
2017-10-16T12:09:01.603Z,655
2017-10-16T12:09:14.510Z,750
2017-10-16T12:09:27.454Z,745
2017-10-16T12:09:40.916Z,720
2017-10-16T12:09:54.323Z,535
2017-10-16T12:10:07.256Z,475
2017-10-16T12:10:19.064Z,570
2017-10-16T12:10:32.472Z,690
2017-10-16T12:10:45.415Z,645
2017-10-16T12:10:58.887Z,665
2017-10-16T12:11:11.200Z,670
2017-10-16T12:11:24.671Z,655
2017-10-16T12:11:38.138Z,645
2017-10-16T12:11:51.597Z,635
2017-10-16T12:12:04.494Z,630
2017-10-16T12:12:17.893Z,580
2017-10-16T12:12:31.363Z,550
2017-10-16T12:12:43.750Z,605
2017-10-16T12:12:57.209Z,590
2017-10-16T12:13:10.152Z,555
2017-10-16T12:13:23.609Z,575
2017-10-16T12:13:37.064Z,575
2017-10-16T12:13:50.034Z,575
2017-10-16T12:14:03.445Z,570
2017-10-16T12:14:16.364Z,570
2017-10-16T12:14:29.198Z,565
2017-10-16T12:14:42.117Z,570
2017-10-16T12:14:55.570Z,570
2017-10-16T12:15:08.517Z,570
2017-10-16T12:15:21.430Z,570
2017-10-16T12:15:34.306Z,570
2017-10-16T12:15:47.276Z,575
2017-10-16T12:16:00.190Z,575
2017-10-16T12:16:12.595Z,575
2017-10-16T12:16:25.510Z,580
2017-10-16T12:16:39.164Z,585
2017-10-16T12:16:52.055Z,585
2017-10-16T12:17:05.031Z,570
2017-10-16T12:17:17.877Z,575
2017-10-16T12:17:31.383Z,580
2017-10-16T12:17:44.797Z,575
2017-10-16T12:17:57.695Z,580
2017-10-16T12:18:10.051Z,580
2017-10-16T12:18:23.535Z,580
2017-10-16T12:18:36.412Z,580
2017-10-16T12:18:49.849Z,580
2017-10-16T12:19:03.305Z,580
2017-10-16T12:19:16.756Z,580
2017-10-16T12:19:29.138Z,580
2017-10-16T12:19:42.598Z,575
2017-10-16T12:19:55.506Z,570
2017-10-16T12:20:08.450Z,580
2017-10-16T12:20:21.415Z,580
2017-10-16T12:20:34.330Z,585
2017-10-16T12:20:47.228Z,580
2017-10-16T12:21:00.654Z,580
2017-10-16T12:21:13.045Z,580
2017-10-16T12:21:26.646Z,595
2017-10-16T12:21:38.959Z,585
2017-10-16T12:21:52.432Z,565
2017-10-16T12:22:05.374Z,555
2017-10-16T12:22:16.676Z,610
2017-10-16T12:22:29.041Z,635
2017-10-16T12:22:42.514Z,635
2017-10-16T12:22:55.979Z,645
2017-10-16T12:23:09.454Z,655
2017-10-16T12:23:22.311Z,660
2017-10-16T12:23:34.145Z,660
2017-10-16T12:23:47.635Z,665
2017-10-16T12:24:01.111Z,655
2017-10-16T12:24:14.021Z,650
2017-10-16T12:24:26.964Z,645
2017-10-16T12:24:40.390Z,650
2017-10-16T12:24:53.819Z,655
2017-10-16T12:25:07.279Z,650
2017-10-16T12:25:19.662Z,655
2017-10-16T12:25:33.182Z,660
2017-10-16T12:25:46.594Z,660
2017-10-16T12:26:00.035Z,660
2017-10-16T12:26:13.524Z,660
2017-10-16T12:26:25.881Z,655
2017-10-16T12:26:38.801Z,655
2017-10-16T12:26:52.259Z,655